Time;durP1;ratioP1;P1;durP2;ratioP2;P2;SDS_P1;SDS_P2;PMS_P1;PMS_P2;Temp;Humidity;BMP_temperature;BMP_pressure;BME280_temperature;BME280_humidity;BME280_pressure;Samples;Min_cycle;Max_cycle;Signal;HPM_P1;HPM_P2
2022/02/03 00:01:26;;;;;;;16.38;2.50;;;2.30;99.90;;;;;;5039013;28;20231;-81
2022/02/03 00:04:03;;;;;;;7.65;3.05;;;2.40;99.90;;;;;;5037752;28;20184;-81
2022/02/03 00:06:47;;;;;;;11.75;3.42;;;2.40;99.90;;;;;;5052005;28;20180;-81
2022/02/03 00:09:46;;;;;;;8.43;2.92;;;2.40;99.90;;;;;;5043878;28;20681;-81
2022/02/03 00:23:43;;;;;;;11.23;2.90;;;2.40;99.90;;;;;;5037924;28;20565;-80
2022/02/03 00:26:11;;;;;;;18.58;3.47;;;2.40;99.90;;;;;;5036889;28;20674;-80
2022/02/03 00:28:45;;;;;;;7.60;2.30;;;2.40;99.90;;;;;;5036722;28;20238;-80
2022/02/03 00:31:30;;;;;;;12.00;3.53;;;2.40;99.90;;;;;;5036741;28;20224;-79
2022/02/03 00:34:04;;;;;;;3.33;2.00;;;2.30;99.90;;;;;;5036252;28;20333;-80
2022/02/03 00:36:52;;;;;;;12.82;2.97;;;2.40;99.90;;;;;;5042723;28;20215;-79
2022/02/03 00:50:26;;;;;;;16.42;2.80;;;2.10;99.90;;;;;;5048734;28;20207;-80
2022/02/03 00:52:55;;;;;;;5.63;2.92;;;2.20;99.90;;;;;;5045704;28;20208;-80
2022/02/03 00:55:22;;;;;;;8.32;2.40;;;2.20;99.90;;;;;;5038374;28;20204;-80
2022/02/03 00:57:51;;;;;;;8.75;3.22;;;2.20;99.90;;;;;;5035346;28;20206;-80
2022/02/03 01:00:21;;;;;;;9.73;2.88;;;2.20;99.90;;;;;;5034924;28;20207;-80
2022/02/03 01:03:01;;;;;;;13.15;3.50;;;2.20;99.90;;;;;;5035895;28;20242;-80
2022/02/03 01:05:29;;;;;;;7.43;2.60;;;2.20;99.90;;;;;;5034700;28;20195;-79
2022/02/03 01:08:04;;;;;;;4.82;2.00;;;2.20;99.90;;;;;;5035006;28;20203;-80
2022/02/03 01:10:38;;;;;;;6.13;3.20;;;2.40;99.90;;;;;;5037198;28;20298;-80
2022/02/03 01:13:14;;;;;;;14.68;2.85;;;2.20;99.90;;;;;;5037839;28;20208;-80
2022/02/03 01:15:47;;;;;;;5.90;2.67;;;2.20;99.90;;;;;;5038727;28;20196;-79
2022/02/03 01:18:45;;;;;;;10.38;2.92;;;2.10;99.90;;;;;;5038552;28;20278;-79
2022/02/03 01:21:41;;;;;;;12.18;2.67;;;2.20;99.90;;;;;;5040187;28;20223;-80
2022/02/03 01:36:51;;;;;;;13.52;5.05;;;2.30;99.90;;;;;;5038911;28;20212;-79
2022/02/03 01:43:45;;;;;;;10.63;3.60;;;2.20;99.90;;;;;;5039270;28;20580;-82
2022/02/03 01:46:13;;;;;;;10.10;4.40;;;2.40;99.90;;;;;;5039040;28;20192;-82
2022/02/03 01:49:02;;;;;;;18.98;3.95;;;2.50;99.90;;;;;;5039013;28;20208;-79
2022/02/03 01:51:40;;;;;;;13.55;3.30;;;2.60;99.90;;;;;;5038228;28;20705;-81
2022/02/03 01:54:07;;;;;;;10.07;3.15;;;2.60;99.90;;;;;;5049084;28;20255;-80
2022/02/03 01:56:39;;;;;;;8.00;3.80;;;2.50;99.90;;;;;;5057821;28;20271;-79
2022/02/03 01:59:19;;;;;;;11.05;3.47;;;2.50;99.90;;;;;;5057925;28;20192;-80
2022/02/03 02:01:49;;;;;;;13.05;4.75;;;2.50;99.90;;;;;;5041244;28;20223;-80
2022/02/03 02:04:28;;;;;;;8.65;3.03;;;2.60;99.90;;;;;;5043127;28;20211;-80
2022/02/03 02:07:11;;;;;;;12.77;3.80;;;2.50;99.90;;;;;;5054203;28;20225;-79
2022/02/03 02:09:55;;;;;;;13.70;4.72;;;2.50;99.90;;;;;;5050709;28;20214;-80
2022/02/03 02:12:43;;;;;;;14.88;3.72;;;2.50;99.90;;;;;;5051013;28;20258;-78
2022/02/03 02:15:35;;;;;;;12.73;3.72;;;2.60;99.90;;;;;;5053599;28;20219;-79
2022/02/03 02:18:45;;;;;;;17.08;4.18;;;2.50;99.90;;;;;;5054137;28;20219;-80
2022/02/03 02:38:10;;;;;;;13.40;3.30;;;2.70;99.90;;;;;;5043879;28;20287;-78
2022/02/03 02:41:07;;;;;;;10.25;3.30;;;2.80;99.90;;;;;;5047538;28;20227;-79
2022/02/03 02:43:39;;;;;;;8.10;3.17;;;2.60;99.90;;;;;;5047043;28;20206;-79
2022/02/03 02:46:12;;;;;;;19.95;3.65;;;2.70;99.90;;;;;;5041545;28;20203;-80
2022/02/03 02:49:10;;;;;;;14.63;3.80;;;2.70;99.90;;;;;;5039246;28;20561;-79
2022/02/03 02:51:48;;;;;;;10.32;3.25;;;2.70;99.90;;;;;;5034805;28;20319;-80
2022/02/03 02:54:42;;;;;;;22.42;4.85;;;2.70;99.90;;;;;;5041156;28;20196;-80
2022/02/03 02:57:33;;;;;;;10.98;2.65;;;2.60;99.90;;;;;;5039860;28;20568;-79
2022/02/03 03:00:30;;;;;;;12.52;4.05;;;2.60;99.90;;;;;;5039847;28;20244;-79
2022/02/03 03:03:28;;;;;;;12.80;3.38;;;2.70;99.90;;;;;;5040409;28;20187;-79
2022/02/03 03:31:09;;;;;;;14.05;2.97;;;2.60;99.90;;;;;;5027039;28;20227;-78
2022/02/03 03:33:48;;;;;;;13.75;3.55;;;2.50;99.90;;;;;;5036976;28;20208;-79
2022/02/03 03:36:19;;;;;;;6.00;2.80;;;2.50;99.90;;;;;;5040007;28;20202;-79
2022/02/03 03:38:49;;;;;;;9.13;3.85;;;2.50;99.90;;;;;;5050288;28;20192;-79
2022/02/03 03:41:19;;;;;;;10.75;3.53;;;2.50;99.90;;;;;;5052875;28;20226;-79
2022/02/03 03:43:59;;;;;;;10.73;4.05;;;2.50;99.90;;;;;;5042647;28;20605;-79
2022/02/03 03:46:28;;;;;;;7.90;2.97;;;2.50;99.90;;;;;;5039606;28;20218;-79
2022/02/03 03:49:04;;;;;;;7.18;3.72;;;2.60;99.90;;;;;;5045554;28;20199;-78
2022/02/03 03:51:40;;;;;;;5.45;3.20;;;2.50;99.90;;;;;;5044152;28;20574;-79
2022/02/03 03:54:12;;;;;;;16.20;2.63;;;2.50;99.90;;;;;;5040340;28;20227;-79
2022/02/03 03:56:53;;;;;;;12.25;3.65;;;2.50;99.90;;;;;;5038894;28;20192;-80
2022/02/03 03:59:49;;;;;;;12.77;2.72;;;2.50;99.90;;;;;;5039053;28;20214;-80
2022/02/03 04:31:58;;;;;;;16.67;3.88;;;2.80;99.90;;;;;;4997121;28;20228;-79
2022/02/03 04:34:49;;;;;;;12.50;3.72;;;2.80;99.90;;;;;;5047062;28;20219;-78
2022/02/03 04:38:02;;;;;;;17.20;4.05;;;2.70;99.90;;;;;;5047287;28;20496;-79
2022/02/03 04:44:17;;;;;;;12.90;2.95;;;2.80;99.90;;;;;;5007205;28;20197;-79
2022/02/03 04:56:34;;;;;;;18.50;4.22;;;2.70;99.90;;;;;;5049834;28;20195;-79
2022/02/03 05:02:14;;;;;;;14.60;3.30;;;2.70;99.90;;;;;;5051314;28;20220;-78
2022/02/03 05:05:07;;;;;;;14.98;3.50;;;2.80;99.90;;;;;;5050748;28;20234;-78
2022/02/03 05:08:06;;;;;;;12.90;3.95;;;2.80;99.90;;;;;;5051753;28;20195;-79
2022/02/03 05:11:00;;;;;;;18.65;5.32;;;2.80;99.90;;;;;;5045838;28;20233;-78
2022/02/03 05:14:18;;;;;;;17.15;3.15;;;2.90;99.90;;;;;;5048543;28;20636;-78
2022/02/03 05:17:15;;;;;;;7.35;2.97;;;2.90;99.90;;;;;;5051227;28;20188;-78
2022/02/03 05:23:37;;;;;;;12.03;3.57;;;2.80;99.90;;;;;;5131016;27;1135970;-78
2022/02/03 05:26:34;;;;;;;12.65;4.35;;;2.90;99.90;;;;;;5146560;28;20196;-78
2022/02/03 05:44:09;;;;;;;11.05;3.47;;;2.80;99.90;;;;;;5076983;28;20225;-80
2022/02/03 05:47:15;;;;;;;6.95;3.08;;;2.70;99.90;;;;;;5108492;28;20190;-80
2022/02/03 05:50:05;;;;;;;13.35;4.13;;;2.70;99.90;;;;;;5106207;28;20186;-80
2022/02/03 05:52:45;;;;;;;8.50;3.53;;;2.80;99.90;;;;;;5106466;28;20228;-80
2022/02/03 06:00:41;;;;;;;18.90;4.68;;;2.80;99.90;;;;;;5108077;28;20312;-82
2022/02/03 06:01:12;;;;;;;7.97;3.45;;;2.70;99.90;;;;;;5096515;28;20286;-81
2022/02/03 06:04:03;;;;;;;12.00;5.05;;;2.80;99.90;;;;;;5095460;28;20186;-81
2022/02/03 06:06:50;;;;;;;14.25;4.40;;;2.80;99.90;;;;;;5095686;28;20220;-81
2022/02/03 06:09:28;;;;;;;7.90;3.47;;;2.80;99.90;;;;;;5099615;28;20243;-81
2022/02/03 06:14:42;;;;;;;12.05;3.75;;;2.80;99.90;;;;;;5111693;28;20213;-82
2022/02/03 06:17:29;;;;;;;9.32;4.80;;;3.00;99.90;;;;;;5096713;28;20594;-80
2022/02/03 06:22:45;;;;;;;8.48;3.95;;;3.00;99.90;;;;;;5094654;28;20259;-81
2022/02/03 06:27:58;;;;;;;10.85;4.10;;;3.00;99.90;;;;;;5104451;28;20238;-81
2022/02/03 06:30:25;;;;;;;11.05;3.65;;;2.90;99.90;;;;;;5101351;28;20615;-80
2022/02/03 06:32:52;;;;;;;14.32;4.70;;;2.40;99.90;;;;;;5091788;28;20548;-80
2022/02/03 06:35:19;;;;;;;15.27;5.28;;;2.70;99.90;;;;;;5083638;28;20237;-81
2022/02/03 06:37:47;;;;;;;11.55;4.30;;;2.70;99.90;;;;;;5083288;28;20237;-82
2022/02/03 06:40:15;;;;;;;10.82;3.90;;;2.70;99.90;;;;;;5080614;28;20213;-80
2022/02/03 06:42:43;;;;;;;15.70;5.55;;;2.70;99.90;;;;;;5079735;28;20739;-81
2022/02/03 06:45:15;;;;;;;11.00;4.10;;;2.70;99.90;;;;;;5079292;28;20320;-80
2022/02/03 06:47:51;;;;;;;14.20;4.07;;;2.70;99.90;;;;;;5079874;28;20605;-80
2022/02/03 06:50:22;;;;;;;13.75;5.00;;;2.70;99.90;;;;;;5080494;28;20186;-81
2022/02/03 06:52:54;;;;;;;18.48;4.57;;;2.70;99.90;;;;;;5080141;28;20198;-81
2022/02/03 06:55:38;;;;;;;13.75;4.70;;;2.70;99.90;;;;;;5080383;28;20226;-82
2022/02/03 06:58:10;;;;;;;16.05;5.20;;;2.70;99.90;;;;;;5080178;28;20641;-81
2022/02/03 07:00:42;;;;;;;11.13;4.20;;;2.70;99.90;;;;;;5080244;28;20187;-81
2022/02/03 07:03:14;;;;;;;8.27;4.10;;;2.80;99.90;;;;;;5080212;28;20229;-83
2022/02/03 07:05:41;;;;;;;10.75;4.60;;;2.80;99.90;;;;;;5083033;28;20286;-80
2022/02/03 07:08:13;;;;;;;22.00;4.38;;;2.80;99.90;;;;;;5082126;28;20210;-82
2022/02/03 07:10:40;;;;;;;23.38;5.40;;;2.70;99.90;;;;;;5084950;28;20249;-79
2022/02/03 07:13:08;;;;;;;14.63;5.80;;;2.60;99.90;;;;;;5091862;28;20260;-80
2022/02/03 07:15:34;;;;;;;13.02;4.28;;;2.80;99.90;;;;;;5091331;28;20712;-79
2022/02/03 07:18:03;;;;;;;4.93;3.83;;;2.80;99.90;;;;;;5088427;28;20308;-79
2022/02/03 07:20:31;;;;;;;11.88;4.15;;;2.80;99.90;;;;;;5090373;28;20734;-81
2022/02/03 07:22:57;;;;;;;10.57;4.05;;;2.80;99.90;;;;;;5090454;28;20242;-80
2022/02/03 07:25:24;;;;;;;12.65;3.25;;;2.90;99.90;;;;;;5089706;28;20222;-80
2022/02/03 07:27:51;;;;;;;13.32;6.00;;;2.80;99.90;;;;;;5086669;28;20652;-80
2022/02/03 07:30:17;;;;;;;24.17;4.53;;;2.80;99.90;;;;;;5084439;28;20236;-81
2022/02/03 07:32:44;;;;;;;17.70;5.28;;;2.90;99.90;;;;;;5084481;28;20231;-79
2022/02/03 07:35:12;;;;;;;12.05;4.55;;;2.90;99.90;;;;;;5093223;28;20226;-80
2022/02/03 07:37:49;;;;;;;12.40;5.43;;;3.20;99.90;;;;;;5090876;28;20210;-81
2022/02/03 07:40:17;;;;;;;17.45;5.55;;;3.00;99.90;;;;;;5087649;28;20240;-81
2022/02/03 07:42:45;;;;;;;10.98;3.92;;;3.00;99.90;;;;;;5085409;28;20226;-82
2022/02/03 07:45:12;;;;;;;11.13;5.00;;;3.00;99.90;;;;;;5080645;28;20222;-79
2022/02/03 07:47:43;;;;;;;12.43;3.97;;;3.00;99.90;;;;;;5080248;28;20707;-81
2022/02/03 07:50:11;;;;;;;12.35;5.43;;;2.90;99.90;;;;;;5083914;28;20190;-81
2022/02/03 07:52:38;;;;;;;13.88;4.38;;;3.10;99.90;;;;;;5093055;28;20206;-83
2022/02/03 07:55:07;;;;;;;12.60;4.60;;;3.10;99.90;;;;;;5090025;28;20226;-82
2022/02/03 07:57:33;;;;;;;15.38;4.45;;;3.10;99.90;;;;;;5092382;28;20210;-81
2022/02/03 08:00:00;;;;;;;14.88;5.93;;;3.20;99.90;;;;;;5085742;28;20236;-81
2022/02/03 08:02:26;;;;;;;16.45;3.88;;;3.20;99.90;;;;;;5080935;28;20222;-80
2022/02/03 08:04:54;;;;;;;20.88;7.15;;;3.20;99.90;;;;;;5079877;28;20222;-81
2022/02/03 08:07:24;;;;;;;14.00;6.70;;;3.20;99.90;;;;;;5079808;28;20300;-81
2022/02/03 08:09:57;;;;;;;15.35;4.57;;;3.20;99.90;;;;;;5081081;28;20266;-82
2022/02/03 08:12:28;;;;;;;13.80;4.65;;;3.20;99.90;;;;;;5080470;28;20186;-80
2022/02/03 08:14:58;;;;;;;9.15;4.50;;;3.20;99.90;;;;;;5087352;28;20222;-80
2022/02/03 08:17:33;;;;;;;7.78;4.90;;;3.30;99.90;;;;;;5089872;28;20224;-79
2022/02/03 08:20:04;;;;;;;17.83;5.03;;;3.40;99.90;;;;;;5088406;28;20220;-81
2022/02/03 08:22:36;;;;;;;15.73;4.72;;;3.40;99.90;;;;;;5087330;28;20217;-80
2022/02/03 08:25:10;;;;;;;14.52;5.32;;;3.30;99.90;;;;;;5089303;28;20290;-81
2022/02/03 08:30:35;;;;;;;8.75;4.05;;;3.50;99.90;;;;;;5066380;28;20217;-80
2022/02/03 08:33:02;;;;;;;10.93;4.35;;;3.50;99.90;;;;;;5085910;28;20186;-79
2022/02/03 08:35:39;;;;;;;13.90;5.22;;;3.50;99.90;;;;;;5082472;28;20248;-80
2022/02/03 08:38:17;;;;;;;13.40;5.10;;;3.60;99.90;;;;;;5084465;28;20186;-79
2022/02/03 08:40:57;;;;;;;12.63;4.57;;;3.70;99.90;;;;;;5082397;28;20210;-80
2022/02/03 08:43:24;;;;;;;15.18;4.93;;;4.20;99.90;;;;;;5086762;28;20337;-81
2022/02/03 08:45:51;;;;;;;17.00;5.50;;;4.00;99.90;;;;;;5087004;28;20222;-80
2022/02/03 08:48:18;;;;;;;13.77;4.90;;;4.10;99.90;;;;;;5088508;28;20205;-79
2022/02/03 08:50:45;;;;;;;14.93;4.82;;;4.20;99.90;;;;;;5084315;28;20215;-80
2022/02/03 08:53:17;;;;;;;14.07;5.65;;;4.30;99.90;;;;;;5082709;28;20205;-82
2022/02/03 08:55:52;;;;;;;10.65;5.38;;;4.20;99.90;;;;;;5084124;28;20218;-82
2022/02/03 08:58:42;;;;;;;8.57;4.68;;;4.30;99.90;;;;;;5081945;28;20190;-80
2022/02/03 09:34:48;;;;;;;12.32;6.03;;;5.00;99.90;;;;;;5073706;28;20217;-80
2022/02/03 09:37:53;;;;;;;11.57;5.15;;;4.80;99.90;;;;;;5095333;28;20200;-79
2022/02/03 09:40:34;;;;;;;19.88;7.05;;;4.80;99.90;;;;;;5086444;28;20205;-82
2022/02/03 09:51:50;;;;;;;12.20;4.53;;;5.00;99.90;;;;;;5085715;28;20201;-81
2022/02/03 09:54:49;;;;;;;12.98;7.45;;;5.10;99.90;;;;;;5085747;28;20221;-81
2022/02/03 09:57:30;;;;;;;10.32;4.68;;;5.30;99.90;;;;;;5083158;28;20189;-81
2022/02/03 10:00:28;;;;;;;12.93;4.70;;;5.10;99.90;;;;;;5083080;28;20286;-82
2022/02/03 10:02:59;;;;;;;8.30;4.40;;;5.10;99.90;;;;;;5083827;28;20214;-80
2022/02/03 10:05:34;;;;;;;17.73;5.53;;;5.10;99.90;;;;;;5083156;28;20218;-82
2022/02/03 10:08:01;;;;;;;11.35;5.60;;;5.20;99.90;;;;;;5087359;28;20229;-82
2022/02/03 10:10:29;;;;;;;12.65;5.65;;;5.30;99.90;;;;;;5084651;28;20202;-81
2022/02/03 10:12:57;;;;;;;11.20;4.93;;;5.30;99.90;;;;;;5084461;28;20225;-82
2022/02/03 10:15:25;;;;;;;7.50;5.40;;;5.40;99.90;;;;;;5084086;28;20222;-82
2022/02/03 10:17:56;;;;;;;18.55;6.28;;;5.40;99.90;;;;;;5094361;28;20220;-82
2022/02/03 10:20:27;;;;;;;20.35;6.03;;;5.50;99.90;;;;;;5095628;28;20191;-80
2022/02/03 10:22:57;;;;;;;12.70;6.40;;;5.50;99.90;;;;;;5083526;28;20214;-82
2022/02/03 10:25:25;;;;;;;10.20;6.00;;;5.70;99.90;;;;;;5081998;28;20258;-81
2022/02/03 10:28:01;;;;;;;10.82;6.18;;;5.60;99.90;;;;;;5083887;28;20206;-82
2022/02/03 10:30:36;;;;;;;21.35;6.10;;;5.60;99.90;;;;;;5090921;28;20274;-79
2022/02/03 10:33:04;;;;;;;11.63;5.78;;;5.70;99.90;;;;;;5091325;28;20193;-81
2022/02/03 10:35:36;;;;;;;14.43;7.68;;;5.80;99.90;;;;;;5096708;28;20234;-81
2022/02/03 10:46:48;;;;;;;14.40;7.00;;;5.50;99.90;;;;;;5028435;28;20193;-79
2022/02/03 10:49:38;;;;;;;24.67;10.45;;;5.60;99.90;;;;;;5079747;28;20206;-80
2022/02/03 10:55:18;;;;;;;16.25;8.30;;;5.60;99.90;;;;;;5057495;28;20273;-80
2022/02/03 10:58:19;;;;;;;22.33;13.65;;;5.60;99.90;;;;;;5083689;28;20301;-80
2022/02/03 11:01:05;;;;;;;11.85;6.70;;;5.70;99.90;;;;;;5082435;28;20206;-82
2022/02/03 11:03:52;;;;;;;17.98;9.90;;;5.70;99.90;;;;;;5081965;28;20209;-81
2022/02/03 11:06:26;;;;;;;13.68;8.40;;;5.70;99.90;;;;;;5082194;28;20285;-81
2022/02/03 11:09:01;;;;;;;17.52;8.98;;;5.70;99.90;;;;;;5082522;28;20198;-81
2022/02/03 11:11:34;;;;;;;32.58;13.13;;;5.70;99.90;;;;;;5086529;28;20187;-81
2022/02/03 11:14:02;;;;;;;20.55;7.90;;;5.70;99.90;;;;;;5086219;28;20260;-81
2022/02/03 11:16:32;;;;;;;9.90;6.72;;;5.70;99.90;;;;;;5087447;28;20202;-80
2022/02/03 11:19:04;;;;;;;23.00;8.25;;;5.60;99.90;;;;;;5092502;28;20405;-79
2022/02/03 11:21:31;;;;;;;18.73;9.93;;;5.60;99.90;;;;;;5088610;28;20217;-82
2022/02/03 11:24:04;;;;;;;14.60;7.90;;;5.70;99.90;;;;;;5083905;28;20257;-81
2022/02/03 11:26:40;;;;;;;19.40;9.30;;;5.70;99.90;;;;;;5082659;28;20200;-81
2022/02/03 11:29:57;;;;;;;19.45;9.20;;;5.70;99.90;;;;;;5085769;28;20194;-80
2022/02/03 11:32:31;;;;;;;21.65;8.70;;;5.70;99.90;;;;;;5085646;28;20206;-81
2022/02/03 11:36:05;;;;;;;19.40;13.10;;;5.80;99.90;;;;;;5091405;22;20317;-79
2022/02/03 11:41:39;;;;;;;12.95;10.15;;;5.80;99.90;;;;;;5062273;28;20190;-79
2022/02/03 11:45:13;;;;;;;26.90;13.05;;;6.10;99.90;;;;;;5062970;28;20207;-80
2022/02/03 11:47:51;;;;;;;21.10;13.50;;;5.80;99.90;;;;;;5079901;28;20198;-79
2022/02/03 11:53:39;;;;;;;17.00;11.95;;;5.80;99.90;;;;;;5082984;28;20659;-80
2022/02/03 11:59:17;;;;;;;19.05;11.20;;;5.80;99.90;;;;;;5077626;28;20198;-81
2022/02/03 12:01:56;;;;;;;24.67;13.15;;;5.80;99.90;;;;;;5086195;28;20198;-79
2022/02/03 12:04:50;;;;;;;23.08;10.45;;;5.80;99.90;;;;;;5088331;28;20252;-80
2022/02/03 12:13:48;;;;;;;18.03;12.43;;;5.80;99.90;;;;;;5121579;27;1173344;-80
2022/02/03 12:16:23;;;;;;;14.13;10.93;;;5.80;99.90;;;;;;5142903;28;20220;-80
2022/02/03 12:19:09;;;;;;;19.92;11.57;;;5.80;99.90;;;;;;5142970;28;20249;-80
2022/02/03 12:21:42;;;;;;;18.13;11.57;;;5.80;99.90;;;;;;5138660;28;20547;-80
2022/02/03 12:24:27;;;;;;;14.75;10.88;;;5.80;99.90;;;;;;5140735;28;20198;-80
2022/02/03 12:27:03;;;;;;;14.00;10.75;;;5.80;99.90;;;;;;5119840;22;20234;-82
2022/02/03 12:29:38;;;;;;;14.93;10.05;;;5.80;99.90;;;;;;5077349;28;20190;-80
2022/02/03 12:32:14;;;;;;;17.05;12.07;;;5.80;99.90;;;;;;5078015;28;20549;-80
2022/02/03 12:37:53;;;;;;;15.57;11.60;;;5.80;99.90;;;;;;5070490;28;20222;-80
2022/02/03 12:40:29;;;;;;;17.83;11.80;;;6.00;99.90;;;;;;5072076;28;20207;-79
2022/02/03 12:43:13;;;;;;;14.07;11.48;;;5.80;99.90;;;;;;5067087;28;20191;-80
2022/02/03 12:45:41;;;;;;;15.65;10.98;;;5.90;99.90;;;;;;5068402;28;20229;-82
2022/02/03 12:48:08;;;;;;;17.13;12.60;;;5.90;99.90;;;;;;5067156;28;20199;-83
2022/02/03 12:50:37;;;;;;;18.10;10.93;;;6.00;99.90;;;;;;5058468;28;20250;-82
2022/02/03 12:53:05;;;;;;;17.85;11.52;;;5.80;99.90;;;;;;5058699;28;20565;-83
2022/02/03 12:55:33;;;;;;;17.88;11.25;;;6.00;99.90;;;;;;5056276;28;20251;-82
2022/02/03 12:58:03;;;;;;;18.77;11.80;;;6.00;99.90;;;;;;5057037;28;20298;-82
2022/02/03 13:00:39;;;;;;;45.40;13.35;;;6.00;99.90;;;;;;5056729;28;20272;-84
2022/02/03 13:03:10;;;;;;;24.10;13.80;;;6.10;99.90;;;;;;5062821;28;20183;-81
2022/02/03 13:05:39;;;;;;;22.73;12.38;;;6.10;99.90;;;;;;5067138;28;20358;-82
2022/02/03 13:08:08;;;;;;;17.45;12.35;;;6.10;99.90;;;;;;5056886;28;20207;-82
2022/02/03 13:10:38;;;;;;;27.88;13.10;;;6.10;99.90;;;;;;5055482;28;20307;-84
2022/02/03 13:13:17;;;;;;;20.17;11.85;;;6.10;99.90;;;;;;5056185;28;20220;-82
2022/02/03 13:15:44;;;;;;;79.28;23.95;;;6.10;99.90;;;;;;5056464;28;20230;-83
2022/02/03 13:18:17;;;;;;;30.98;14.40;;;6.10;99.90;;;;;;5055181;28;20207;-83
2022/02/03 13:20:50;;;;;;;20.48;13.13;;;6.10;99.90;;;;;;5060808;28;20196;-83
2022/02/03 13:23:22;;;;;;;48.90;14.85;;;6.10;99.90;;;;;;5051772;28;20234;-84
2022/02/03 13:25:55;;;;;;;27.30;13.88;;;6.10;99.90;;;;;;5042583;28;20231;-82
2022/02/03 13:28:33;;;;;;;93.63;19.52;;;6.20;99.90;;;;;;5043220;28;20188;-83
2022/02/03 13:31:17;;;;;;;31.20;15.20;;;6.30;99.90;;;;;;5044190;28;20192;-84
2022/02/03 13:33:56;;;;;;;17.02;12.40;;;6.10;99.90;;;;;;5042753;28;20206;-82
2022/02/03 13:36:31;;;;;;;22.75;12.82;;;6.10;99.90;;;;;;5043010;28;20226;-82
2022/02/03 13:39:03;;;;;;;18.75;13.70;;;6.10;99.90;;;;;;5042369;28;20183;-82
2022/02/03 13:41:34;;;;;;;16.02;11.48;;;6.10;99.90;;;;;;5042888;28;20214;-82
2022/02/03 13:44:05;;;;;;;16.95;12.57;;;6.20;99.90;;;;;;5043110;28;20204;-84
2022/02/03 13:46:35;;;;;;;18.63;12.73;;;6.20;99.90;;;;;;5041103;28;20254;-84
2022/02/03 13:49:05;;;;;;;24.58;13.80;;;6.20;99.90;;;;;;5041450;28;20196;-83
2022/02/03 13:51:37;;;;;;;32.58;14.10;;;6.20;99.90;;;;;;5041464;28;20200;-82
2022/02/03 13:54:16;;;;;;;21.55;12.90;;;6.30;99.90;;;;;;5043936;28;20192;-82
2022/02/03 14:11:29;;;;;;;19.98;13.25;;;6.50;99.90;;;;;;5041823;28;20265;-82
2022/02/03 14:20:04;;;;;;;24.27;15.35;;;6.30;99.90;;;;;;5039546;28;20259;-82
2022/02/03 14:22:54;;;;;;;22.88;15.82;;;6.40;99.90;;;;;;5041812;28;20203;-83
2022/02/03 14:28:01;;;;;;;19.05;12.85;;;6.40;99.90;;;;;;5040770;28;20283;-83
2022/02/03 14:30:28;;;;;;;21.20;12.73;;;6.40;99.90;;;;;;5041865;28;20208;-82
2022/02/03 14:32:57;;;;;;;21.65;16.35;;;6.40;99.90;;;;;;5039906;28;20223;-82
2022/02/03 14:35:24;;;;;;;19.40;12.57;;;6.40;99.90;;;;;;5039012;28;20230;-82
2022/02/03 14:38:02;;;;;;;17.90;12.30;;;6.40;99.90;;;;;;5040695;28;20215;-83
2022/02/03 14:40:39;;;;;;;20.10;14.23;;;6.40;99.90;;;;;;5040090;28;20208;-82
2022/02/03 14:43:06;;;;;;;26.58;13.10;;;6.40;99.90;;;;;;5040182;28;20184;-82
2022/02/03 14:45:34;;;;;;;20.58;14.35;;;6.40;99.90;;;;;;5039872;28;20334;-82
2022/02/03 14:48:00;;;;;;;22.52;15.18;;;6.40;99.90;;;;;;5043126;28;20204;-82
2022/02/03 14:50:27;;;;;;;24.25;15.25;;;6.50;99.90;;;;;;5042766;28;20231;-82
2022/02/03 14:52:58;;;;;;;26.73;15.82;;;6.40;99.90;;;;;;5049716;28;20223;-82
2022/02/03 14:58:21;;;;;;;21.77;12.27;;;;;;;;;;5040278;28;20222;-82
2022/02/03 15:00:49;;;;;;;20.65;12.35;;;6.50;99.90;;;;;;5039616;28;20211;-82
2022/02/03 15:03:16;;;;;;;18.50;13.18;;;6.50;99.90;;;;;;5041790;28;20200;-82
2022/02/03 15:05:43;;;;;;;18.17;12.73;;;6.50;99.90;;;;;;5046158;28;20247;-83
2022/02/03 15:08:20;;;;;;;19.67;11.52;;;6.50;99.90;;;;;;5040716;28;20338;-83
2022/02/03 15:10:53;;;;;;;17.40;12.07;;;6.50;99.90;;;;;;5045371;28;20191;-83
2022/02/03 15:13:35;;;;;;;19.95;12.45;;;6.50;99.90;;;;;;5048319;28;20238;-83
2022/02/03 15:16:02;;;;;;;17.88;13.25;;;6.60;99.90;;;;;;5048334;28;20227;-83
2022/02/03 15:18:29;;;;;;;17.58;12.00;;;6.50;99.90;;;;;;5048396;28;20210;-81
2022/02/03 15:20:57;;;;;;;19.15;12.13;;;6.50;99.90;;;;;;5049026;28;20225;-81
2022/02/03 15:23:26;;;;;;;21.20;13.98;;;6.60;99.90;;;;;;5045913;28;20200;-81
2022/02/03 15:25:53;;;;;;;20.65;12.85;;;6.50;99.90;;;;;;5044833;28;20311;-80
2022/02/03 15:28:19;;;;;;;21.58;13.20;;;6.30;99.90;;;;;;5047186;28;20662;-81
2022/02/03 15:30:47;;;;;;;18.50;12.98;;;6.60;99.90;;;;;;5050400;28;20218;-81
2022/02/03 15:33:14;;;;;;;26.02;15.23;;;6.60;99.90;;;;;;5043151;28;20282;-82
2022/02/03 15:35:45;;;;;;;26.30;14.85;;;6.60;99.90;;;;;;5045397;28;20254;-81
2022/02/03 15:38:15;;;;;;;27.30;16.73;;;6.60;99.90;;;;;;5042696;28;20287;-81
2022/02/03 15:40:43;;;;;;;27.35;17.38;;;6.60;99.90;;;;;;5043357;28;20227;-81
2022/02/03 15:43:22;;;;;;;26.15;17.30;;;6.60;99.90;;;;;;5042568;28;20236;-82
2022/02/03 15:45:52;;;;;;;24.27;15.45;;;6.60;99.90;;;;;;5048937;28;20223;-82
2022/02/03 15:48:29;;;;;;;31.25;18.27;;;6.60;99.90;;;;;;5043587;28;20207;-82
2022/02/03 15:51:14;;;;;;;18.48;14.20;;;6.70;99.90;;;;;;5042967;28;20196;-81
2022/02/03 15:56:54;;;;;;;21.48;13.05;;;6.70;99.90;;;;;;5045206;28;20476;-83
2022/02/03 16:18:59;;;;;;;21.15;13.20;;;6.80;99.90;;;;;;5048396;28;20219;-81
2022/02/03 16:21:32;;;;;;;21.08;13.02;;;6.80;99.90;;;;;;5054003;28;20195;-83
2022/02/03 16:24:14;;;;;;;17.27;12.13;;;6.80;99.90;;;;;;5050352;28;20247;-83
2022/02/03 16:51:25;;;;;;;24.65;15.32;;;6.60;99.90;;;;;;5041551;28;20420;-81
2022/02/03 16:53:53;;;;;;;25.75;16.13;;;7.30;99.90;;;;;;5047256;28;20442;-83
2022/02/03 16:56:23;;;;;;;22.48;14.15;;;6.90;99.90;;;;;;5046885;28;20223;-81
2022/02/03 16:58:49;;;;;;;22.30;14.93;;;6.90;99.90;;;;;;5047474;28;20215;-80
2022/02/03 17:01:17;;;;;;;25.33;14.65;;;6.90;99.90;;;;;;5046624;28;20204;-83
2022/02/03 17:03:44;;;;;;;20.85;14.18;;;6.90;99.90;;;;;;5047746;28;20200;-82
2022/02/03 17:06:13;;;;;;;29.38;16.73;;;6.90;99.90;;;;;;5046795;28;20227;-81
2022/02/03 17:08:40;;;;;;;28.00;18.15;;;6.90;99.90;;;;;;5044418;28;20215;-82
2022/02/03 17:11:06;;;;;;;27.27;18.05;;;6.90;99.90;;;;;;5043777;28;20207;-83
2022/02/03 17:13:33;;;;;;;26.50;15.98;;;6.90;99.90;;;;;;5043991;28;20244;-83
2022/02/03 17:16:00;;;;;;;28.23;17.75;;;6.90;99.90;;;;;;5043117;28;20272;-84
2022/02/03 17:18:27;;;;;;;31.42;17.95;;;6.80;99.90;;;;;;5043167;28;20246;-83
2022/02/03 17:20:55;;;;;;;30.25;17.25;;;6.80;99.90;;;;;;5043576;28;20207;-82
2022/02/03 17:23:23;;;;;;;32.45;18.85;;;6.80;99.90;;;;;;5043802;28;20227;-82
2022/02/03 17:25:57;;;;;;;28.67;19.67;;;6.80;99.90;;;;;;5043210;28;20338;-81
2022/02/03 17:28:29;;;;;;;30.85;19.42;;;6.80;99.90;;;;;;5045489;28;20188;-81
2022/02/03 17:31:00;;;;;;;32.65;17.25;;;6.80;99.90;;;;;;5050857;28;20188;-81
2022/02/03 17:45:36;;;;;;;39.45;20.50;;;6.90;99.90;;;;;;4983485;28;20197;-81
2022/02/03 18:08:02;;;;;;;47.80;24.87;;;7.00;99.90;;;;;;4993231;28;20434;-80
2022/02/03 18:10:39;;;;;;;38.08;20.70;;;6.80;99.90;;;;;;5056620;28;20433;-80
2022/02/03 18:30:33;;;;;;;31.13;18.13;;;6.90;99.90;;;;;;5057873;28;20206;-82
2022/02/03 18:33:43;;;;;;;29.60;17.38;;;;;;;;;;5057922;28;20291;-84
2022/02/03 18:36:42;;;;;;;33.63;21.40;;;6.80;99.90;;;;;;5057118;28;20228;-80
2022/02/03 18:50:32;;;;;;;39.05;21.50;;;6.90;99.90;;;;;;5058167;28;20191;-80
2022/02/03 18:53:13;;;;;;;43.30;22.77;;;6.90;99.90;;;;;;5058534;28;20238;-82
2022/02/03 18:55:58;;;;;;;42.22;24.92;;;6.90;99.90;;;;;;5059224;28;20271;-82
2022/02/03 19:01:42;;;;;;;34.58;21.30;;;;;;;;;;5055089;28;20222;-84
2022/02/03 19:20:52;;;;;;;35.08;20.92;;;6.90;99.90;;;;;;5014041;28;20259;-83
2022/02/03 19:28:26;;;;;;;41.15;26.27;;;7.20;99.90;;;;;;5055412;28;20199;-82
2022/02/03 20:08:03;;;;;;;37.67;21.70;;;;;;;;;;5034705;28;20191;-80
2022/02/03 20:13:46;;;;;;;49.83;25.85;;;7.10;99.90;;;;;;5054348;28;20241;-81
2022/02/03 20:16:21;;;;;;;38.78;24.40;;;;;;;;;;5056554;28;20223;-81
2022/02/03 20:18:53;;;;;;;38.78;24.85;;;6.80;99.90;;;;;;5056019;28;20195;-81
2022/02/03 20:21:24;;;;;;;40.97;24.05;;;6.90;99.90;;;;;;5055786;28;20215;-82
2022/02/03 20:24:09;;;;;;;42.38;23.08;;;6.90;99.90;;;;;;5055732;28;20225;-80
2022/02/03 20:26:44;;;;;;;39.85;24.80;;;6.90;99.90;;;;;;5056191;28;20216;-80
2022/02/03 20:29:38;;;;;;;37.97;23.80;;;6.90;99.90;;;;;;5057245;28;20278;-81
2022/02/03 20:32:09;;;;;;;37.65;24.27;;;6.90;99.90;;;;;;5054038;28;20206;-81
2022/02/03 20:34:36;;;;;;;41.72;23.88;;;;;;;;;;5057721;28;20283;-84
2022/02/03 20:37:04;;;;;;;47.38;24.85;;;7.00;99.90;;;;;;5058519;28;20227;-80
2022/02/03 20:39:31;;;;;;;48.30;27.30;;;6.90;99.90;;;;;;5057864;28;20203;-83
2022/02/03 20:41:58;;;;;;;49.83;25.60;;;6.90;99.90;;;;;;5058735;28;20204;-84